Detall de PIREP

Printer-friendly versionPDF version

[2012/05/21 07:25:00]
Flight IATA:CT2111
Pilot Number:041
Company ICAO:CAT
Aircraft Type:BE58/A
PAX:3
Departing Airport: LEST
Destination Airport: LEVC
Alternate Airport:LEPA
Online: VATSIM
Route:FORNO A33 ZMR A33 DISKO A33 INDEG A33 MAGIN A33 HORTA A33 CJN A33 PRADO A33 CENTA
Flight Level:F120
No Slew and time accel
No pause
Crash detect
Detect pilot in Cockpit between each 30 and 45 minutes
07:25 Zero fuel Weight: 4592 Lbs, Fuel Weight: 850 Lbs
07:25 VATSIM:LEST 210700Z VRB01KT 9999 2500NE VCFG FEW014 SCT027 10/09 Q1019 TEMPO BKN012
07:25 VATSIM:LEVC 210700Z 28013G24KT 9999 FEW030 17/02 Q1011 NOSIG
07:25 VOICE CATALONIAN
07:28 Parking Brakes off
07:35 Take-off
07:35 Take off Weight: 5439 Lbs
07:35 Wind: 088º @ 006 Knots Heading: 164º
07:35 POS N42º 54´ 05´´ W008º 25´ 00´´
07:35 Gear Up: 104 Knots
07:35 Flaps:1 at 104 Knots
07:35 Flaps:0 at 105 Knots
07:45 TOC
07:45 Fuel Weight: 808 Lb
07:50 Wind:006º@017 Knots Heading: 117º Ground Speed: 213 Knots Altitude 12398 ft
08:05 Wind:004º@017 Knots Heading: 120º Ground Speed: 216 Knots Altitude 12454 ft
08:20 Wind:007º@018 Knots Heading: 120º Ground Speed: 216 Knots Altitude 12437 ft
08:35 Wind:031º@017 Knots Heading: 111º Ground Speed: 212 Knots Altitude 12421 ft
08:50 Wind:012º@024 Knots Heading: 110º Ground Speed: 218 Knots Altitude 12372 ft
09:05 Wind:037º@016 Knots Heading: 112º Ground Speed: 205 Knots Altitude 12372 ft
09:13 TOD
09:13 Fuel Weight: 462 Lb
09:20 Wind:034º@019 Knots Heading: 113º Ground Speed: 175 Knots Altitude 6368 ft
09:35 Wind:087º@009 Knots Heading: 180º Ground Speed: 192 Knots Altitude 5000 ft
09:50 Wind:044º@006 Knots Heading: 299º Ground Speed: 148 Knots Altitude 3494 ft
09:50 Flaps:1 at 137 Knots
09:50 Gear Down: 117 Knots
09:54 Flaps:2 at 101 Knots
09:56 TouchDown:Rate -71 ft/min Speed: 79 Knots
09:56 Flaps:0 at 67 Knots
09:56 VATSIM:LEVC 210930Z 28014KT 250V330 9999 FEW030 20/01 Q1012 NOSIG
09:56 Land
09:56 Wind:166º@004 Knots
09:56 Heading: 295º
09:56 Flight Duration: 02:21
09:56 Landing Weight: 4933 Lbs
09:56 POS N39º 29´ 13´´ W000º 28´ 32´´
10:00 Parking brakes on
10:00 Block to Block Duration: 02:32
10:00 Final Fuel: 339 Lbls
10:00 Spent Fuel: 511 Lbls
10:00 Flight Length: 459 NM
10:00 TOD Land Length: 124 NM

Exportar CSV

Powered by Drupal - Modified by Danger4k